sensor_id;sensor_type;location;lat;lon;timestamp;P1;durP1;ratioP1;P2;durP2;ratioP2
67696;SDS011;54486;51.442;6.778;2023-09-30T00:01:37;14.82;;;4.55;;
67696;SDS011;54486;51.442;6.778;2023-09-30T00:04:05;15.10;;;4.88;;
67696;SDS011;54486;51.442;6.778;2023-09-30T00:06:36;13.38;;;3.97;;
67696;SDS011;54486;51.442;6.778;2023-09-30T00:09:04;15.23;;;4.88;;
67696;SDS011;54486;51.442;6.778;2023-09-30T00:11:33;13.88;;;4.38;;
67696;SDS011;54486;51.442;6.778;2023-09-30T00:14:02;14.70;;;4.37;;
67696;SDS011;54486;51.442;6.778;2023-09-30T00:16:29;13.93;;;4.40;;
67696;SDS011;54486;51.442;6.778;2023-09-30T00:18:58;14.27;;;3.95;;
67696;SDS011;54486;51.442;6.778;2023-09-30T00:21:27;14.73;;;4.72;;
67696;SDS011;54486;51.442;6.778;2023-09-30T00:23:54;14.57;;;4.50;;
67696;SDS011;54486;51.442;6.778;2023-09-30T00:26:21;14.30;;;4.28;;
67696;SDS011;54486;51.442;6.778;2023-09-30T00:28:50;14.35;;;3.90;;
67696;SDS011;54486;51.442;6.778;2023-09-30T00:31:17;11.82;;;4.43;;
67696;SDS011;54486;51.442;6.778;2023-09-30T00:33:44;13.68;;;3.83;;
67696;SDS011;54486;51.442;6.778;2023-09-30T00:36:12;14.77;;;3.88;;
67696;SDS011;54486;51.442;6.778;2023-09-30T00:38:39;12.97;;;3.90;;
67696;SDS011;54486;51.442;6.778;2023-09-30T00:41:07;14.10;;;3.90;;
67696;SDS011;54486;51.442;6.778;2023-09-30T00:43:34;17.98;;;4.80;;
67696;SDS011;54486;51.442;6.778;2023-09-30T00:48:32;14.35;;;4.78;;
67696;SDS011;54486;51.442;6.778;2023-09-30T00:51:01;13.48;;;4.43;;
67696;SDS011;54486;51.442;6.778;2023-09-30T00:53:29;16.35;;;4.72;;
67696;SDS011;54486;51.442;6.778;2023-09-30T00:55:56;13.85;;;4.05;;
67696;SDS011;54486;51.442;6.778;2023-09-30T00:58:25;12.15;;;5.00;;
67696;SDS011;54486;51.442;6.778;2023-09-30T01:00:55;16.88;;;4.93;;
67696;SDS011;54486;51.442;6.778;2023-09-30T01:03:24;14.17;;;4.87;;
67696;SDS011;54486;51.442;6.778;2023-09-30T01:05:51;14.77;;;4.88;;
67696;SDS011;54486;51.442;6.778;2023-09-30T01:08:20;15.20;;;5.65;;
67696;SDS011;54486;51.442;6.778;2023-09-30T01:10:48;15.82;;;4.75;;
67696;SDS011;54486;51.442;6.778;2023-09-30T01:13:15;17.70;;;5.38;;
67696;SDS011;54486;51.442;6.778;2023-09-30T01:15:43;14.57;;;4.95;;
67696;SDS011;54486;51.442;6.778;2023-09-30T01:18:10;14.05;;;4.70;;
67696;SDS011;54486;51.442;6.778;2023-09-30T01:20:38;14.52;;;4.63;;
67696;SDS011;54486;51.442;6.778;2023-09-30T01:23:06;14.52;;;4.60;;
67696;SDS011;54486;51.442;6.778;2023-09-30T01:25:34;15.25;;;5.20;;
67696;SDS011;54486;51.442;6.778;2023-09-30T01:28:01;16.15;;;5.00;;
67696;SDS011;54486;51.442;6.778;2023-09-30T01:30:33;14.80;;;4.70;;
67696;SDS011;54486;51.442;6.778;2023-09-30T01:33:01;14.02;;;4.72;;
67696;SDS011;54486;51.442;6.778;2023-09-30T01:35:28;15.90;;;5.10;;
67696;SDS011;54486;51.442;6.778;2023-09-30T01:37:55;13.27;;;4.65;;
67696;SDS011;54486;51.442;6.778;2023-09-30T01:40:22;15.23;;;5.47;;
67696;SDS011;54486;51.442;6.778;2023-09-30T01:42:49;13.68;;;5.25;;
67696;SDS011;54486;51.442;6.778;2023-09-30T01:45:15;16.23;;;5.15;;
67696;SDS011;54486;51.442;6.778;2023-09-30T01:47:42;15.57;;;5.10;;
67696;SDS011;54486;51.442;6.778;2023-09-30T01:50:09;15.20;;;4.93;;
67696;SDS011;54486;51.442;6.778;2023-09-30T01:52:38;14.20;;;4.47;;
67696;SDS011;54486;51.442;6.778;2023-09-30T01:55:05;14.85;;;4.90;;
67696;SDS011;54486;51.442;6.778;2023-09-30T01:57:33;16.88;;;4.75;;
67696;SDS011;54486;51.442;6.778;2023-09-30T02:00:00;15.52;;;5.25;;
67696;SDS011;54486;51.442;6.778;2023-09-30T02:02:29;15.90;;;5.78;;
67696;SDS011;54486;51.442;6.778;2023-09-30T02:04:57;16.02;;;5.43;;
67696;SDS011;54486;51.442;6.778;2023-09-30T02:07:23;14.93;;;5.32;;
67696;SDS011;54486;51.442;6.778;2023-09-30T02:09:51;17.48;;;5.10;;
67696;SDS011;54486;51.442;6.778;2023-09-30T02:12:18;17.20;;;5.10;;
67696;SDS011;54486;51.442;6.778;2023-09-30T02:14:45;13.75;;;4.72;;
67696;SDS011;54486;51.442;6.778;2023-09-30T02:17:13;14.68;;;5.22;;
67696;SDS011;54486;51.442;6.778;2023-09-30T02:19:40;14.60;;;5.38;;
67696;SDS011;54486;51.442;6.778;2023-09-30T02:22:07;16.77;;;5.50;;
67696;SDS011;54486;51.442;6.778;2023-09-30T02:24:34;16.48;;;4.57;;
67696;SDS011;54486;51.442;6.778;2023-09-30T02:27:01;14.33;;;5.27;;
67696;SDS011;54486;51.442;6.778;2023-09-30T02:29:28;15.43;;;4.43;;
67696;SDS011;54486;51.442;6.778;2023-09-30T02:31:55;14.93;;;4.88;;
67696;SDS011;54486;51.442;6.778;2023-09-30T02:34:22;15.05;;;5.50;;
67696;SDS011;54486;51.442;6.778;2023-09-30T02:36:50;15.75;;;5.00;;
67696;SDS011;54486;51.442;6.778;2023-09-30T02:39:19;14.45;;;5.15;;
67696;SDS011;54486;51.442;6.778;2023-09-30T02:41:46;13.40;;;4.82;;
67696;SDS011;54486;51.442;6.778;2023-09-30T02:44:16;14.95;;;4.95;;
67696;SDS011;54486;51.442;6.778;2023-09-30T02:46:43;13.93;;;5.00;;
67696;SDS011;54486;51.442;6.778;2023-09-30T02:49:10;13.00;;;4.88;;
67696;SDS011;54486;51.442;6.778;2023-09-30T02:51:37;15.43;;;5.00;;
67696;SDS011;54486;51.442;6.778;2023-09-30T02:54:04;14.73;;;4.90;;
67696;SDS011;54486;51.442;6.778;2023-09-30T02:56:32;13.93;;;5.35;;
67696;SDS011;54486;51.442;6.778;2023-09-30T02:59:00;15.68;;;5.45;;
67696;SDS011;54486;51.442;6.778;2023-09-30T03:01:29;15.65;;;5.50;;
67696;SDS011;54486;51.442;6.778;2023-09-30T03:03:57;15.27;;;5.17;;
67696;SDS011;54486;51.442;6.778;2023-09-30T03:06:25;14.27;;;4.80;;
67696;SDS011;54486;51.442;6.778;2023-09-30T03:08:52;15.32;;;5.22;;
67696;SDS011;54486;51.442;6.778;2023-09-30T03:11:19;13.55;;;4.88;;
67696;SDS011;54486;51.442;6.778;2023-09-30T03:13:50;14.95;;;5.30;;
67696;SDS011;54486;51.442;6.778;2023-09-30T03:16:17;15.25;;;5.10;;
67696;SDS011;54486;51.442;6.778;2023-09-30T03:18:44;14.23;;;4.80;;
67696;SDS011;54486;51.442;6.778;2023-09-30T03:21:15;16.67;;;5.20;;
67696;SDS011;54486;51.442;6.778;2023-09-30T03:23:43;16.55;;;4.60;;
67696;SDS011;54486;51.442;6.778;2023-09-30T03:26:10;16.10;;;4.93;;
67696;SDS011;54486;51.442;6.778;2023-09-30T03:28:37;14.93;;;4.50;;
67696;SDS011;54486;51.442;6.778;2023-09-30T03:31:05;17.02;;;5.13;;
67696;SDS011;54486;51.442;6.778;2023-09-30T03:33:33;15.27;;;4.65;;
67696;SDS011;54486;51.442;6.778;2023-09-30T03:36:00;15.65;;;4.70;;
67696;SDS011;54486;51.442;6.778;2023-09-30T03:38:27;14.68;;;4.55;;
67696;SDS011;54486;51.442;6.778;2023-09-30T03:40:55;14.13;;;4.53;;
67696;SDS011;54486;51.442;6.778;2023-09-30T03:43:24;15.15;;;4.80;;
67696;SDS011;54486;51.442;6.778;2023-09-30T03:45:52;13.27;;;4.47;;
67696;SDS011;54486;51.442;6.778;2023-09-30T03:48:20;15.97;;;4.27;;
67696;SDS011;54486;51.442;6.778;2023-09-30T03:50:47;14.98;;;4.60;;
67696;SDS011;54486;51.442;6.778;2023-09-30T03:53:15;12.77;;;4.80;;
67696;SDS011;54486;51.442;6.778;2023-09-30T03:55:42;12.40;;;4.53;;
67696;SDS011;54486;51.442;6.778;2023-09-30T03:58:09;15.03;;;4.80;;
67696;SDS011;54486;51.442;6.778;2023-09-30T04:00:36;13.15;;;4.35;;
67696;SDS011;54486;51.442;6.778;2023-09-30T04:03:04;15.60;;;4.15;;
67696;SDS011;54486;51.442;6.778;2023-09-30T04:05:31;13.57;;;4.57;;
67696;SDS011;54486;51.442;6.778;2023-09-30T04:08:03;17.58;;;5.38;;
67696;SDS011;54486;51.442;6.778;2023-09-30T04:10:32;16.73;;;5.22;;
67696;SDS011;54486;51.442;6.778;2023-09-30T04:12:59;12.73;;;4.43;;
67696;SDS011;54486;51.442;6.778;2023-09-30T04:15:26;13.80;;;5.10;;
67696;SDS011;54486;51.442;6.778;2023-09-30T04:17:54;12.30;;;4.37;;
67696;SDS011;54486;51.442;6.778;2023-09-30T04:20:21;14.55;;;4.80;;
67696;SDS011;54486;51.442;6.778;2023-09-30T04:22:50;16.00;;;5.18;;
67696;SDS011;54486;51.442;6.778;2023-09-30T04:25:18;14.57;;;4.90;;
67696;SDS011;54486;51.442;6.778;2023-09-30T04:27:46;16.35;;;4.88;;
67696;SDS011;54486;51.442;6.778;2023-09-30T04:30:18;15.88;;;4.95;;
67696;SDS011;54486;51.442;6.778;2023-09-30T04:32:46;15.67;;;5.17;;
67696;SDS011;54486;51.442;6.778;2023-09-30T04:35:13;17.20;;;5.50;;
67696;SDS011;54486;51.442;6.778;2023-09-30T04:37:42;12.82;;;4.82;;
67696;SDS011;54486;51.442;6.778;2023-09-30T04:40:11;18.23;;;5.28;;
67696;SDS011;54486;51.442;6.778;2023-09-30T04:42:47;15.52;;;5.20;;
67696;SDS011;54486;51.442;6.778;2023-09-30T04:45:15;15.25;;;5.32;;
67696;SDS011;54486;51.442;6.778;2023-09-30T04:47:43;14.07;;;5.20;;
67696;SDS011;54486;51.442;6.778;2023-09-30T04:50:16;15.10;;;5.43;;
67696;SDS011;54486;51.442;6.778;2023-09-30T04:52:43;14.73;;;5.43;;
67696;SDS011;54486;51.442;6.778;2023-09-30T04:55:13;14.73;;;5.05;;
67696;SDS011;54486;51.442;6.778;2023-09-30T04:57:43;18.73;;;6.05;;
67696;SDS011;54486;51.442;6.778;2023-09-30T05:00:13;16.63;;;5.95;;
67696;SDS011;54486;51.442;6.778;2023-09-30T05:02:40;15.85;;;5.53;;
67696;SDS011;54486;51.442;6.778;2023-09-30T05:05:08;16.33;;;6.22;;
67696;SDS011;54486;51.442;6.778;2023-09-30T05:07:35;16.15;;;5.30;;
67696;SDS011;54486;51.442;6.778;2023-09-30T05:10:02;16.35;;;5.35;;
67696;SDS011;54486;51.442;6.778;2023-09-30T05:12:37;14.52;;;5.38;;
67696;SDS011;54486;51.442;6.778;2023-09-30T05:15:05;16.67;;;5.70;;
67696;SDS011;54486;51.442;6.778;2023-09-30T05:17:35;17.23;;;6.10;;
67696;SDS011;54486;51.442;6.778;2023-09-30T05:20:03;17.55;;;6.05;;
67696;SDS011;54486;51.442;6.778;2023-09-30T05:22:33;16.43;;;5.40;;
67696;SDS011;54486;51.442;6.778;2023-09-30T05:25:00;15.25;;;5.72;;
67696;SDS011;54486;51.442;6.778;2023-09-30T05:27:28;18.13;;;5.93;;
67696;SDS011;54486;51.442;6.778;2023-09-30T05:29:55;16.27;;;5.63;;
67696;SDS011;54486;51.442;6.778;2023-09-30T05:32:22;16.65;;;6.00;;
67696;SDS011;54486;51.442;6.778;2023-09-30T05:34:49;16.52;;;6.20;;
67696;SDS011;54486;51.442;6.778;2023-09-30T05:37:16;15.73;;;5.67;;
67696;SDS011;54486;51.442;6.778;2023-09-30T05:39:44;17.15;;;6.47;;
67696;SDS011;54486;51.442;6.778;2023-09-30T05:42:11;15.82;;;6.22;;
67696;SDS011;54486;51.442;6.778;2023-09-30T05:44:38;18.73;;;6.57;;
67696;SDS011;54486;51.442;6.778;2023-09-30T05:47:06;17.13;;;6.23;;
67696;SDS011;54486;51.442;6.778;2023-09-30T05:49:33;20.17;;;6.93;;
67696;SDS011;54486;51.442;6.778;2023-09-30T05:52:00;19.17;;;6.22;;
67696;SDS011;54486;51.442;6.778;2023-09-30T05:54:27;20.08;;;6.32;;
67696;SDS011;54486;51.442;6.778;2023-09-30T05:56:55;16.27;;;5.90;;
67696;SDS011;54486;51.442;6.778;2023-09-30T05:59:23;14.98;;;6.05;;
67696;SDS011;54486;51.442;6.778;2023-09-30T06:01:52;18.90;;;6.53;;
67696;SDS011;54486;51.442;6.778;2023-09-30T06:04:19;18.65;;;6.25;;
67696;SDS011;54486;51.442;6.778;2023-09-30T06:06:47;18.98;;;6.78;;
67696;SDS011;54486;51.442;6.778;2023-09-30T06:09:15;20.40;;;6.63;;
67696;SDS011;54486;51.442;6.778;2023-09-30T06:11:42;17.27;;;6.70;;
67696;SDS011;54486;51.442;6.778;2023-09-30T06:14:09;16.75;;;6.57;;
67696;SDS011;54486;51.442;6.778;2023-09-30T06:16:36;15.73;;;6.07;;
67696;SDS011;54486;51.442;6.778;2023-09-30T06:19:03;20.55;;;6.75;;
67696;SDS011;54486;51.442;6.778;2023-09-30T06:21:30;17.40;;;6.60;;
67696;SDS011;54486;51.442;6.778;2023-09-30T06:24:01;18.15;;;6.63;;
67696;SDS011;54486;51.442;6.778;2023-09-30T06:26:29;18.60;;;6.63;;
67696;SDS011;54486;51.442;6.778;2023-09-30T06:28:56;17.13;;;6.40;;
67696;SDS011;54486;51.442;6.778;2023-09-30T06:31:24;17.85;;;7.07;;
67696;SDS011;54486;51.442;6.778;2023-09-30T06:33:51;18.47;;;6.67;;
67696;SDS011;54486;51.442;6.778;2023-09-30T06:36:20;18.10;;;6.90;;
67696;SDS011;54486;51.442;6.778;2023-09-30T06:38:47;17.95;;;7.47;;
67696;SDS011;54486;51.442;6.778;2023-09-30T06:41:17;18.20;;;6.80;;
67696;SDS011;54486;51.442;6.778;2023-09-30T06:43:44;17.45;;;6.70;;
67696;SDS011;54486;51.442;6.778;2023-09-30T06:46:13;17.13;;;6.30;;
67696;SDS011;54486;51.442;6.778;2023-09-30T06:48:40;20.00;;;7.07;;
67696;SDS011;54486;51.442;6.778;2023-09-30T06:51:07;18.65;;;7.60;;
67696;SDS011;54486;51.442;6.778;2023-09-30T06:53:40;18.40;;;6.75;;
67696;SDS011;54486;51.442;6.778;2023-09-30T06:56:07;17.55;;;7.38;;
67696;SDS011;54486;51.442;6.778;2023-09-30T06:58:34;16.52;;;6.95;;
67696;SDS011;54486;51.442;6.778;2023-09-30T07:01:02;17.95;;;7.10;;
67696;SDS011;54486;51.442;6.778;2023-09-30T07:03:30;18.63;;;7.50;;
67696;SDS011;54486;51.442;6.778;2023-09-30T07:05:59;18.60;;;7.63;;
67696;SDS011;54486;51.442;6.778;2023-09-30T07:08:30;22.30;;;8.25;;
67696;SDS011;54486;51.442;6.778;2023-09-30T07:10:57;22.50;;;8.13;;
67696;SDS011;54486;51.442;6.778;2023-09-30T07:13:24;22.50;;;7.80;;
67696;SDS011;54486;51.442;6.778;2023-09-30T07:15:51;18.75;;;7.90;;
67696;SDS011;54486;51.442;6.778;2023-09-30T07:18:18;22.00;;;8.37;;
67696;SDS011;54486;51.442;6.778;2023-09-30T07:20:45;22.13;;;8.52;;
67696;SDS011;54486;51.442;6.778;2023-09-30T07:23:12;21.30;;;9.27;;
67696;SDS011;54486;51.442;6.778;2023-09-30T07:25:46;23.17;;;9.40;;
67696;SDS011;54486;51.442;6.778;2023-09-30T07:28:14;24.42;;;9.25;;
67696;SDS011;54486;51.442;6.778;2023-09-30T07:30:41;22.23;;;9.13;;
67696;SDS011;54486;51.442;6.778;2023-09-30T07:33:10;22.42;;;9.43;;
67696;SDS011;54486;51.442;6.778;2023-09-30T07:35:37;23.35;;;9.30;;
67696;SDS011;54486;51.442;6.778;2023-09-30T07:38:05;23.00;;;8.40;;
67696;SDS011;54486;51.442;6.778;2023-09-30T07:40:33;20.70;;;8.65;;
67696;SDS011;54486;51.442;6.778;2023-09-30T07:43:00;19.05;;;9.23;;
67696;SDS011;54486;51.442;6.778;2023-09-30T07:45:27;19.77;;;9.13;;
67696;SDS011;54486;51.442;6.778;2023-09-30T07:47:55;23.23;;;9.43;;
67696;SDS011;54486;51.442;6.778;2023-09-30T07:50:22;25.13;;;10.50;;
67696;SDS011;54486;51.442;6.778;2023-09-30T07:52:50;22.33;;;9.90;;
67696;SDS011;54486;51.442;6.778;2023-09-30T07:55:17;23.13;;;10.17;;
67696;SDS011;54486;51.442;6.778;2023-09-30T07:57:44;26.23;;;11.20;;
67696;SDS011;54486;51.442;6.778;2023-09-30T08:00:13;22.65;;;10.13;;
67696;SDS011;54486;51.442;6.778;2023-09-30T08:02:44;26.52;;;10.98;;
67696;SDS011;54486;51.442;6.778;2023-09-30T08:05:12;24.80;;;11.52;;
67696;SDS011;54486;51.442;6.778;2023-09-30T08:07:40;24.85;;;11.43;;
67696;SDS011;54486;51.442;6.778;2023-09-30T08:10:08;29.48;;;13.00;;
67696;SDS011;54486;51.442;6.778;2023-09-30T08:12:40;31.13;;;13.20;;
67696;SDS011;54486;51.442;6.778;2023-09-30T08:15:09;31.73;;;13.93;;
67696;SDS011;54486;51.442;6.778;2023-09-30T08:17:40;29.17;;;13.50;;
67696;SDS011;54486;51.442;6.778;2023-09-30T08:20:08;28.90;;;13.13;;
67696;SDS011;54486;51.442;6.778;2023-09-30T08:22:36;27.58;;;12.48;;
67696;SDS011;54486;51.442;6.778;2023-09-30T08:25:04;26.97;;;11.97;;
67696;SDS011;54486;51.442;6.778;2023-09-30T08:27:33;25.27;;;12.50;;
67696;SDS011;54486;51.442;6.778;2023-09-30T08:30:00;26.73;;;11.88;;
67696;SDS011;54486;51.442;6.778;2023-09-30T08:32:32;26.42;;;12.07;;
67696;SDS011;54486;51.442;6.778;2023-09-30T08:35:03;23.75;;;11.35;;
67696;SDS011;54486;51.442;6.778;2023-09-30T08:37:31;24.65;;;11.52;;
67696;SDS011;54486;51.442;6.778;2023-09-30T08:39:58;23.40;;;11.20;;
67696;SDS011;54486;51.442;6.778;2023-09-30T08:42:27;24.90;;;11.75;;
67696;SDS011;54486;51.442;6.778;2023-09-30T08:45:00;26.25;;;13.05;;
67696;SDS011;54486;51.442;6.778;2023-09-30T08:47:28;28.00;;;12.10;;
67696;SDS011;54486;51.442;6.778;2023-09-30T08:49:59;25.50;;;11.70;;
67696;SDS011;54486;51.442;6.778;2023-09-30T08:52:33;26.17;;;11.95;;
67696;SDS011;54486;51.442;6.778;2023-09-30T08:55:08;26.20;;;12.55;;
67696;SDS011;54486;51.442;6.778;2023-09-30T08:57:37;27.50;;;13.02;;
67696;SDS011;54486;51.442;6.778;2023-09-30T09:00:09;25.25;;;12.40;;
67696;SDS011;54486;51.442;6.778;2023-09-30T09:02:42;25.50;;;11.10;;
67696;SDS011;54486;51.442;6.778;2023-09-30T09:05:10;25.33;;;11.10;;
67696;SDS011;54486;51.442;6.778;2023-09-30T09:07:39;26.92;;;12.68;;
67696;SDS011;54486;51.442;6.778;2023-09-30T09:10:07;25.43;;;11.43;;
67696;SDS011;54486;51.442;6.778;2023-09-30T09:12:40;26.58;;;12.30;;
67696;SDS011;54486;51.442;6.778;2023-09-30T09:15:11;24.75;;;11.32;;
67696;SDS011;54486;51.442;6.778;2023-09-30T09:17:49;23.95;;;11.57;;
67696;SDS011;54486;51.442;6.778;2023-09-30T09:20:19;23.77;;;11.55;;
67696;SDS011;54486;51.442;6.778;2023-09-30T09:22:53;25.37;;;12.23;;
67696;SDS011;54486;51.442;6.778;2023-09-30T09:25:22;28.30;;;12.65;;
67696;SDS011;54486;51.442;6.778;2023-09-30T09:27:51;27.67;;;12.95;;
67696;SDS011;54486;51.442;6.778;2023-09-30T09:33:02;23.27;;;11.87;;
67696;SDS011;54486;51.442;6.778;2023-09-30T09:35:34;21.33;;;10.65;;
67696;SDS011;54486;51.442;6.778;2023-09-30T09:38:07;22.25;;;9.98;;
67696;SDS011;54486;51.442;6.778;2023-09-30T09:40:35;21.30;;;9.73;;
67696;SDS011;54486;51.442;6.778;2023-09-30T09:43:05;21.23;;;10.32;;
67696;SDS011;54486;51.442;6.778;2023-09-30T09:45:34;22.35;;;10.90;;
67696;SDS011;54486;51.442;6.778;2023-09-30T09:48:03;22.58;;;10.95;;
67696;SDS011;54486;51.442;6.778;2023-09-30T09:50:32;25.50;;;11.00;;
67696;SDS011;54486;51.442;6.778;2023-09-30T09:52:59;22.98;;;10.20;;
67696;SDS011;54486;51.442;6.778;2023-09-30T09:55:27;22.58;;;10.32;;
67696;SDS011;54486;51.442;6.778;2023-09-30T09:57:54;21.27;;;10.02;;
67696;SDS011;54486;51.442;6.778;2023-09-30T10:00:25;22.13;;;10.27;;
67696;SDS011;54486;51.442;6.778;2023-09-30T10:02:53;19.77;;;9.90;;
67696;SDS011;54486;51.442;6.778;2023-09-30T10:05:21;21.23;;;9.50;;
67696;SDS011;54486;51.442;6.778;2023-09-30T10:08:00;24.27;;;11.52;;
67696;SDS011;54486;51.442;6.778;2023-09-30T10:10:31;22.45;;;11.07;;
67696;SDS011;54486;51.442;6.778;2023-09-30T10:13:03;19.35;;;10.18;;
67696;SDS011;54486;51.442;6.778;2023-09-30T10:18:02;18.05;;;8.60;;
67696;SDS011;54486;51.442;6.778;2023-09-30T10:20:43;21.73;;;8.90;;
67696;SDS011;54486;51.442;6.778;2023-09-30T10:23:19;16.95;;;7.57;;
67696;SDS011;54486;51.442;6.778;2023-09-30T10:25:48;16.23;;;7.18;;
67696;SDS011;54486;51.442;6.778;2023-09-30T10:36:31;14.20;;;5.07;;
67696;SDS011;54486;51.442;6.778;2023-09-30T10:39:13;11.65;;;4.75;;
67696;SDS011;54486;51.442;6.778;2023-09-30T10:44:51;11.27;;;3.58;;
67696;SDS011;54486;51.442;6.778;2023-09-30T10:47:00;11.88;;;3.70;;
67696;SDS011;54486;51.442;6.778;2023-09-30T10:49:51;11.18;;;3.85;;
67696;SDS011;54486;51.442;6.778;2023-09-30T10:52:23;12.50;;;3.47;;
67696;SDS011;54486;51.442;6.778;2023-09-30T10:54:51;10.63;;;3.88;;
67696;SDS011;54486;51.442;6.778;2023-09-30T10:57:28;11.68;;;3.95;;
67696;SDS011;54486;51.442;6.778;2023-09-30T11:00:11;11.13;;;4.22;;
67696;SDS011;54486;51.442;6.778;2023-09-30T11:02:48;13.52;;;3.97;;
67696;SDS011;54486;51.442;6.778;2023-09-30T11:05:20;11.23;;;3.67;;
67696;SDS011;54486;51.442;6.778;2023-09-30T11:08:10;12.07;;;4.07;;
67696;SDS011;54486;51.442;6.778;2023-09-30T11:10:37;11.43;;;4.37;;
67696;SDS011;54486;51.442;6.778;2023-09-30T11:13:04;10.80;;;3.83;;
67696;SDS011;54486;51.442;6.778;2023-09-30T11:15:32;11.90;;;3.70;;
67696;SDS011;54486;51.442;6.778;2023-09-30T11:18:21;11.60;;;3.92;;
67696;SDS011;54486;51.442;6.778;2023-09-30T11:20:48;11.88;;;4.40;;
67696;SDS011;54486;51.442;6.778;2023-09-30T11:23:16;13.05;;;4.53;;
67696;SDS011;54486;51.442;6.778;2023-09-30T11:25:43;12.70;;;4.68;;
67696;SDS011;54486;51.442;6.778;2023-09-30T11:28:17;11.10;;;4.30;;
67696;SDS011;54486;51.442;6.778;2023-09-30T11:30:53;11.88;;;4.25;;
67696;SDS011;54486;51.442;6.778;2023-09-30T11:33:21;13.25;;;4.10;;
67696;SDS011;54486;51.442;6.778;2023-09-30T11:36:05;9.85;;;3.72;;
67696;SDS011;54486;51.442;6.778;2023-09-30T11:38:34;12.07;;;4.18;;
67696;SDS011;54486;51.442;6.778;2023-09-30T11:41:02;11.20;;;3.17;;
67696;SDS011;54486;51.442;6.778;2023-09-30T11:43:33;10.25;;;3.53;;
67696;SDS011;54486;51.442;6.778;2023-09-30T11:46:08;10.23;;;3.03;;
67696;SDS011;54486;51.442;6.778;2023-09-30T11:48:38;8.85;;;2.88;;
67696;SDS011;54486;51.442;6.778;2023-09-30T11:51:06;8.43;;;2.88;;
67696;SDS011;54486;51.442;6.778;2023-09-30T11:53:34;9.75;;;2.83;;
67696;SDS011;54486;51.442;6.778;2023-09-30T11:56:02;10.38;;;3.40;;
67696;SDS011;54486;51.442;6.778;2023-09-30T11:58:32;9.77;;;3.22;;
67696;SDS011;54486;51.442;6.778;2023-09-30T12:01:00;10.45;;;3.20;;
67696;SDS011;54486;51.442;6.778;2023-09-30T12:03:28;10.50;;;3.33;;
67696;SDS011;54486;51.442;6.778;2023-09-30T12:05:55;11.37;;;3.00;;
67696;SDS011;54486;51.442;6.778;2023-09-30T12:08:24;10.82;;;2.92;;
67696;SDS011;54486;51.442;6.778;2023-09-30T12:10:52;9.18;;;3.10;;
67696;SDS011;54486;51.442;6.778;2023-09-30T12:13:19;11.68;;;3.60;;
67696;SDS011;54486;51.442;6.778;2023-09-30T12:15:46;10.88;;;3.38;;
67696;SDS011;54486;51.442;6.778;2023-09-30T12:18:13;10.85;;;3.28;;
67696;SDS011;54486;51.442;6.778;2023-09-30T12:20:44;9.63;;;3.47;;
67696;SDS011;54486;51.442;6.778;2023-09-30T12:23:11;10.90;;;3.20;;
67696;SDS011;54486;51.442;6.778;2023-09-30T12:25:39;12.90;;;3.47;;
67696;SDS011;54486;51.442;6.778;2023-09-30T12:28:06;10.95;;;3.10;;
67696;SDS011;54486;51.442;6.778;2023-09-30T12:30:34;9.70;;;3.42;;
67696;SDS011;54486;51.442;6.778;2023-09-30T12:33:01;12.53;;;3.77;;
67696;SDS011;54486;51.442;6.778;2023-09-30T12:35:29;11.52;;;3.92;;
67696;SDS011;54486;51.442;6.778;2023-09-30T12:37:56;10.67;;;3.23;;
67696;SDS011;54486;51.442;6.778;2023-09-30T12:40:23;12.05;;;3.88;;
67696;SDS011;54486;51.442;6.778;2023-09-30T12:42:51;10.13;;;3.83;;
67696;SDS011;54486;51.442;6.778;2023-09-30T12:45:18;8.85;;;3.30;;
67696;SDS011;54486;51.442;6.778;2023-09-30T12:47:45;10.85;;;3.45;;
67696;SDS011;54486;51.442;6.778;2023-09-30T12:50:14;11.40;;;3.17;;
67696;SDS011;54486;51.442;6.778;2023-09-30T12:52:42;10.55;;;3.38;;
67696;SDS011;54486;51.442;6.778;2023-09-30T12:55:09;10.80;;;4.13;;
67696;SDS011;54486;51.442;6.778;2023-09-30T12:57:37;11.10;;;3.53;;
67696;SDS011;54486;51.442;6.778;2023-09-30T13:00:04;10.10;;;3.83;;
67696;SDS011;54486;51.442;6.778;2023-09-30T13:02:36;9.20;;;3.47;;
67696;SDS011;54486;51.442;6.778;2023-09-30T13:05:03;10.55;;;4.07;;
67696;SDS011;54486;51.442;6.778;2023-09-30T13:07:31;12.63;;;4.07;;
67696;SDS011;54486;51.442;6.778;2023-09-30T13:10:00;10.10;;;3.40;;
67696;SDS011;54486;51.442;6.778;2023-09-30T13:12:27;9.65;;;2.55;;
67696;SDS011;54486;51.442;6.778;2023-09-30T13:14:54;8.10;;;2.72;;
67696;SDS011;54486;51.442;6.778;2023-09-30T13:17:23;10.07;;;3.33;;
67696;SDS011;54486;51.442;6.778;2023-09-30T13:19:50;8.63;;;2.53;;
67696;SDS011;54486;51.442;6.778;2023-09-30T13:22:18;9.68;;;2.40;;
67696;SDS011;54486;51.442;6.778;2023-09-30T13:24:45;9.50;;;2.63;;
67696;SDS011;54486;51.442;6.778;2023-09-30T13:27:13;10.25;;;3.00;;
67696;SDS011;54486;51.442;6.778;2023-09-30T13:29:44;9.25;;;2.53;;
67696;SDS011;54486;51.442;6.778;2023-09-30T13:32:11;10.18;;;2.70;;
67696;SDS011;54486;51.442;6.778;2023-09-30T13:34:39;9.27;;;2.95;;
67696;SDS011;54486;51.442;6.778;2023-09-30T13:37:07;10.18;;;2.97;;
67696;SDS011;54486;51.442;6.778;2023-09-30T13:39:34;8.93;;;2.75;;
67696;SDS011;54486;51.442;6.778;2023-09-30T13:42:01;9.48;;;2.75;;
67696;SDS011;54486;51.442;6.778;2023-09-30T13:44:29;10.53;;;3.00;;
67696;SDS011;54486;51.442;6.778;2023-09-30T13:46:56;10.35;;;3.25;;
67696;SDS011;54486;51.442;6.778;2023-09-30T13:49:23;9.00;;;3.08;;
67696;SDS011;54486;51.442;6.778;2023-09-30T13:51:50;9.55;;;3.28;;
67696;SDS011;54486;51.442;6.778;2023-09-30T13:54:17;9.87;;;3.30;;
67696;SDS011;54486;51.442;6.778;2023-09-30T13:56:45;9.55;;;4.07;;
67696;SDS011;54486;51.442;6.778;2023-09-30T13:59:12;10.23;;;3.47;;
67696;SDS011;54486;51.442;6.778;2023-09-30T14:01:40;9.75;;;3.60;;
67696;SDS011;54486;51.442;6.778;2023-09-30T14:04:09;9.02;;;3.42;;
67696;SDS011;54486;51.442;6.778;2023-09-30T14:06:37;10.23;;;3.22;;
67696;SDS011;54486;51.442;6.778;2023-09-30T14:09:05;11.88;;;3.88;;
67696;SDS011;54486;51.442;6.778;2023-09-30T14:11:32;12.30;;;3.50;;
67696;SDS011;54486;51.442;6.778;2023-09-30T14:14:00;8.97;;;3.10;;
67696;SDS011;54486;51.442;6.778;2023-09-30T14:16:27;10.40;;;3.25;;
67696;SDS011;54486;51.442;6.778;2023-09-30T14:18:55;9.63;;;3.85;;
67696;SDS011;54486;51.442;6.778;2023-09-30T14:21:24;9.68;;;3.28;;
67696;SDS011;54486;51.442;6.778;2023-09-30T14:23:53;11.85;;;3.70;;
67696;SDS011;54486;51.442;6.778;2023-09-30T14:26:21;9.10;;;3.33;;
67696;SDS011;54486;51.442;6.778;2023-09-30T14:28:48;9.98;;;4.10;;
67696;SDS011;54486;51.442;6.778;2023-09-30T14:31:15;10.60;;;3.70;;
67696;SDS011;54486;51.442;6.778;2023-09-30T14:33:44;11.13;;;3.47;;
67696;SDS011;54486;51.442;6.778;2023-09-30T14:36:11;9.98;;;3.15;;
67696;SDS011;54486;51.442;6.778;2023-09-30T14:38:38;9.53;;;3.60;;
67696;SDS011;54486;51.442;6.778;2023-09-30T14:41:06;10.03;;;4.33;;
67696;SDS011;54486;51.442;6.778;2023-09-30T14:43:35;9.98;;;4.22;;
67696;SDS011;54486;51.442;6.778;2023-09-30T14:46:02;10.10;;;4.00;;
67696;SDS011;54486;51.442;6.778;2023-09-30T14:48:31;10.55;;;3.85;;
67696;SDS011;54486;51.442;6.778;2023-09-30T14:50:59;10.02;;;3.58;;
67696;SDS011;54486;51.442;6.778;2023-09-30T14:53:26;9.63;;;3.80;;
67696;SDS011;54486;51.442;6.778;2023-09-30T14:55:53;9.20;;;3.50;;
67696;SDS011;54486;51.442;6.778;2023-09-30T14:58:20;9.90;;;3.50;;
67696;SDS011;54486;51.442;6.778;2023-09-30T15:00:47;9.73;;;3.45;;